Time;durP1;ratioP1;P1;durP2;ratioP2;P2;SDS_P1;SDS_P2;PMS_P1;PMS_P2;Temp;Humidity;BMP_temperature;BMP_pressure;BME280_temperature;BME280_humidity;BME280_pressure;Samples;Min_cycle;Max_cycle;Signal;HPM_P1;HPM_P2
2022/01/14 00:01:51;;;;;;;37.20;15.32;;;;;;;;;;5024515;28;20478;-52
2022/01/14 00:04:17;;;;;;;32.45;13.65;;;;;;;;;;5030659;28;20025;-55
2022/01/14 00:06:43;;;;;;;34.95;15.80;;;;;;;;;;5030513;28;20065;-55
2022/01/14 00:09:11;;;;;;;34.63;15.23;;;;;;;;;;5027897;28;20033;-53
2022/01/14 00:11:48;;;;;;;36.63;14.43;;;;;;;;;;5028740;28;20038;-53
2022/01/14 00:16:40;;;;;;;35.47;13.50;;;;;;;;;;5027830;28;20041;-51
2022/01/14 00:19:06;;;;;;;39.00;14.30;;;;;;;;;;5017399;28;20323;-55
2022/01/14 00:21:34;;;;;;;41.63;14.45;;;;;;;;;;5030695;28;20421;-55
2022/01/14 00:31:40;;;;;;;34.85;15.23;;;;;;;;;;5030303;28;20484;-50
2022/01/14 00:35:03;;;;;;;33.13;13.48;;;;;;;;;;5021643;28;20060;-53
2022/01/14 00:37:29;;;;;;;39.97;14.32;;;;;;;;;;5022986;28;20041;-55
2022/01/14 00:39:55;;;;;;;34.88;15.77;;;;;;;;;;5023851;28;20137;-52
2022/01/14 00:42:21;;;;;;;37.25;15.15;;;;;;;;;;5018356;28;20030;-54
2022/01/14 00:44:48;;;;;;;36.13;14.73;;;;;;;;;;5024739;28;20473;-55
2022/01/14 00:47:14;;;;;;;32.22;13.35;;;;;;;;;;5021577;28;20477;-52
2022/01/14 00:49:40;;;;;;;29.77;14.18;;;;;;;;;;5028384;28;20025;-55
2022/01/14 00:52:06;;;;;;;35.60;14.80;;;;;;;;;;5023576;28;20034;-55
2022/01/14 00:54:32;;;;;;;42.83;14.02;;;;;;;;;;5030886;28;20022;-53
2022/01/14 00:59:33;;;;;;;33.22;14.85;;;;;;;;;;5022504;28;20045;-52
2022/01/14 01:02:00;;;;;;;37.28;15.43;;;;;;;;;;5016104;28;20038;-52
2022/01/14 01:04:33;;;;;;;37.55;14.23;;;;;;;;;;5017572;28;20033;-51
2022/01/14 01:07:00;;;;;;;43.50;15.25;;;;;;;;;;5026025;28;20097;-51
2022/01/14 01:09:29;;;;;;;38.53;14.15;;;;;;;;;;5018464;28;20034;-52
2022/01/14 01:13:00;;;;;;;34.65;15.05;;;;;;;;;;5027851;28;20071;-51
2022/01/14 01:15:05;;;;;;;38.35;15.27;;;;;;;;;;5021636;28;20035;-53
2022/01/14 01:17:31;;;;;;;35.63;15.20;;;;;;;;;;5016470;28;20037;-54
2022/01/14 01:19:57;;;;;;;35.85;15.75;;;;;;;;;;5015419;28;20092;-53
2022/01/14 01:22:22;;;;;;;44.38;16.42;;;;;;;;;;5025541;28;20492;-50
2022/01/14 01:24:49;;;;;;;39.58;16.60;;;;;;;;;;5022763;28;20049;-52
2022/01/14 01:27:17;;;;;;;34.25;14.45;;;;;;;;;;5025834;28;20021;-55
2022/01/14 01:29:59;;;;;;;43.30;16.55;;;;;;;;;;5023747;28;20022;-51
2022/01/14 01:32:25;;;;;;;40.33;16.30;;;;;;;;;;5024116;28;20112;-52
2022/01/14 01:34:51;;;;;;;37.97;16.20;;;;;;;;;;5018104;28;20476;-55
2022/01/14 01:37:17;;;;;;;37.58;15.52;;;;;;;;;;5014860;28;20033;-55
2022/01/14 01:39:43;;;;;;;33.20;15.40;;;;;;;;;;5019012;28;20079;-55
2022/01/14 01:42:10;;;;;;;42.90;16.67;;;;;;;;;;5026469;28;20037;-56
2022/01/14 01:44:37;;;;;;;40.13;16.13;;;;;;;;;;5026465;28;20036;-52
2022/01/14 01:47:04;;;;;;;36.65;15.05;;;;;;;;;;5023640;28;20025;-57
2022/01/14 01:49:31;;;;;;;41.28;15.60;;;;;;;;;;5025069;28;20026;-53
2022/01/14 01:51:58;;;;;;;37.72;14.68;;;;;;;;;;5016441;28;20030;-54
2022/01/14 01:54:24;;;;;;;38.05;14.60;;;;;;;;;;5019994;28;20037;-54
2022/01/14 01:56:50;;;;;;;39.72;14.73;;;;;;;;;;5020457;28;20026;-53
2022/01/14 01:59:17;;;;;;;34.80;14.75;;;;;;;;;;5027573;28;20041;-55
2022/01/14 02:01:44;;;;;;;38.40;14.95;;;;;;;;;;5023410;28;20030;-52
2022/01/14 02:04:10;;;;;;;39.75;16.25;;;;;;;;;;5021112;28;20393;-54
2022/01/14 02:06:39;;;;;;;35.20;14.48;;;;;;;;;;5026650;28;20417;-52
2022/01/14 02:09:07;;;;;;;42.35;16.85;;;;;;;;;;5016401;28;20028;-52
2022/01/14 02:11:33;;;;;;;36.63;14.60;;;;;;;;;;5022333;28;20033;-51
2022/01/14 02:14:01;;;;;;;45.10;16.02;;;;;;;;;;5028696;28;20049;-52
2022/01/14 02:16:34;;;;;;;39.25;15.90;;;;;;;;;;5030981;28;20025;-51
2022/01/14 02:19:25;;;;;;;37.63;15.57;;;;;;;;;;5029694;28;20060;-57
2022/01/14 02:22:11;;;;;;;46.95;15.77;;;;;;;;;;5021976;28;20091;-55
2022/01/14 02:27:06;;;;;;;51.28;16.30;;;;;;;;;;5024094;28;20608;-57
2022/01/14 02:29:32;;;;;;;42.35;15.80;;;;;;;;;;5016179;28;20049;-57
2022/01/14 02:31:58;;;;;;;45.83;16.02;;;;;;;;;;5029683;28;20069;-57
2022/01/14 02:34:25;;;;;;;43.25;15.98;;;;;;;;;;5026887;28;20507;-54
2022/01/14 02:36:51;;;;;;;37.92;15.77;;;;;;;;;;5015776;28;20517;-52
2022/01/14 02:39:18;;;;;;;37.85;15.05;;;;;;;;;;5027806;28;20100;-55
2022/01/14 02:41:45;;;;;;;43.67;16.58;;;;;;;;;;5027066;28;20088;-56
2022/01/14 02:44:17;;;;;;;36.53;15.60;;;;;;;;;;5029587;28;20406;-55
2022/01/14 02:46:51;;;;;;;42.55;16.88;;;;;;;;;;5025539;28;20036;-55
2022/01/14 02:49:17;;;;;;;41.10;15.85;;;;;;;;;;5033674;28;20500;-55
2022/01/14 02:51:43;;;;;;;38.22;14.55;;;;;;;;;;5022386;28;20061;-57
2022/01/14 02:54:15;;;;;;;35.88;15.02;;;;;;;;;;5030966;28;20083;-50
2022/01/14 02:56:46;;;;;;;38.83;15.07;;;;;;;;;;5024787;28;20600;-55
2022/01/14 02:59:13;;;;;;;39.92;16.08;;;;;;;;;;5020919;28;20026;-56
2022/01/14 03:01:39;;;;;;;34.72;15.95;;;;;;;;;;5030036;28;20029;-54
2022/01/14 03:04:06;;;;;;;35.03;15.80;;;;;;;;;;5027393;28;20080;-53
2022/01/14 03:06:32;;;;;;;36.35;14.95;;;;;;;;;;5021377;28;20478;-52
2022/01/14 03:08:58;;;;;;;42.47;16.00;;;;;;;;;;5024910;28;20462;-54
2022/01/14 03:11:29;;;;;;;40.72;17.13;;;;;;;;;;5022287;28;20500;-56
2022/01/14 03:13:56;;;;;;;46.03;16.20;;;;;;;;;;5031353;28;20033;-52
2022/01/14 03:16:24;;;;;;;39.40;15.63;;;;;;;;;;5029244;28;20030;-56
2022/01/14 03:18:53;;;;;;;43.03;18.30;;;;;;;;;;5031314;28;20041;-53
2022/01/14 03:21:28;;;;;;;53.75;18.23;;;;;;;;;;5024721;28;20034;-53
2022/01/14 03:24:16;;;;;;;45.45;15.73;;;;;;;;;;5019151;28;20052;-52
2022/01/14 03:26:42;;;;;;;46.90;15.57;;;;;;;;;;5024739;28;20100;-57
2022/01/14 03:29:08;;;;;;;41.35;15.45;;;;;;;;;;5024392;28;20036;-52
2022/01/14 03:31:34;;;;;;;43.08;15.25;;;;;;;;;;5019093;28;20021;-54
2022/01/14 03:34:00;;;;;;;40.28;15.10;;;;;;;;;;5015260;28;20522;-54
2022/01/14 03:36:26;;;;;;;36.05;14.50;;;;;;;;;;5030353;28;20033;-54
2022/01/14 03:38:53;;;;;;;38.60;16.35;;;;;;;;;;5031024;28;20026;-55
2022/01/14 03:41:19;;;;;;;38.42;15.85;;;;;;;;;;5019464;28;20477;-56
2022/01/14 03:43:45;;;;;;;38.28;14.43;;;;;;;;;;5028252;28;20034;-55
2022/01/14 03:46:11;;;;;;;34.15;15.05;;;;;;;;;;5031102;28;20108;-57
2022/01/14 03:48:37;;;;;;;41.13;16.02;;;;;;;;;;5032159;28;20147;-56
2022/01/14 03:51:03;;;;;;;44.63;14.88;;;;;;;;;;5016509;28;20405;-56
2022/01/14 03:53:29;;;;;;;46.33;17.02;;;;;;;;;;5030091;28;20038;-55
2022/01/14 03:55:55;;;;;;;39.60;16.15;;;;;;;;;;5031680;28;20127;-57
2022/01/14 03:58:21;;;;;;;40.38;15.95;;;;;;;;;;5025092;28;20038;-55
2022/01/14 04:00:47;;;;;;;45.53;16.20;;;;;;;;;;5019244;28;20034;-52
2022/01/14 04:03:13;;;;;;;41.67;16.25;;;;;;;;;;5025643;28;20022;-57
2022/01/14 04:05:39;;;;;;;37.30;14.60;;;;;;;;;;5023984;28;20041;-56
2022/01/14 04:08:05;;;;;;;35.30;16.23;;;;;;;;;;5026806;28;20558;-55
2022/01/14 04:10:32;;;;;;;40.83;16.60;;;;;;;;;;5028209;28;20051;-53
2022/01/14 04:13:05;;;;;;;43.08;16.08;;;;;;;;;;5029504;28;20025;-55
2022/01/14 04:15:38;;;;;;;46.03;14.27;;;;;;;;;;5027241;28;20473;-52
2022/01/14 04:18:08;;;;;;;38.33;16.05;;;;;;;;;;5030582;28;20535;-50
2022/01/14 04:20:34;;;;;;;40.25;15.20;;;;;;;;;;5030787;28;20067;-56
2022/01/14 04:23:00;;;;;;;44.17;15.07;;;;;;;;;;5026781;28;20040;-51
2022/01/14 04:25:26;;;;;;;40.55;15.75;;;;;;;;;;5028436;28;20026;-57
2022/01/14 04:27:52;;;;;;;41.47;16.23;;;;;;;;;;5025414;28;20018;-54
2022/01/14 04:30:18;;;;;;;43.83;15.30;;;;;;;;;;5028036;28;20037;-56
2022/01/14 04:32:44;;;;;;;40.53;14.75;;;;;;;;;;5017042;28;20043;-52
2022/01/14 04:35:10;;;;;;;48.53;16.23;;;;;;;;;;5031850;28;20049;-53
2022/01/14 04:37:36;;;;;;;43.92;15.35;;;;;;;;;;5019714;28;20029;-57
2022/01/14 04:40:04;;;;;;;43.47;16.70;;;;;;;;;;5020345;28;20037;-52
2022/01/14 04:42:30;;;;;;;42.65;16.15;;;;;;;;;;5021576;28;20029;-54
2022/01/14 04:44:56;;;;;;;38.38;16.75;;;;;;;;;;5020158;28;20034;-54
2022/01/14 04:50:07;;;;;;;41.65;15.40;;;;;;;;;;5024652;28;20044;-54
2022/01/14 04:52:33;;;;;;;40.00;15.93;;;;;;;;;;5017794;28;20048;-56
2022/01/14 04:54:59;;;;;;;43.67;15.10;;;;;;;;;;5018469;28;20034;-52
2022/01/14 04:57:25;;;;;;;36.45;15.32;;;;;;;;;;5017547;28;20076;-53
2022/01/14 04:59:51;;;;;;;41.20;15.57;;;;;;;;;;5026539;28;20089;-50
2022/01/14 05:02:17;;;;;;;46.17;16.65;;;;;;;;;;5023794;28;20492;-53
2022/01/14 05:04:45;;;;;;;42.38;15.38;;;;;;;;;;5026933;28;20026;-57
2022/01/14 05:07:21;;;;;;;44.22;15.45;;;;;;;;;;5020241;28;20049;-57
2022/01/14 05:09:56;;;;;;;43.33;15.77;;;;;;;;;;5021326;28;20029;-56
2022/01/14 05:12:23;;;;;;;42.17;16.92;;;;;;;;;;5027746;28;20536;-55
2022/01/14 05:14:49;;;;;;;51.85;18.70;;;;;;;;;;5030010;28;20040;-57
2022/01/14 05:17:15;;;;;;;42.83;16.48;;;;;;;;;;5019984;28;20041;-56
2022/01/14 05:19:41;;;;;;;51.65;18.52;;;;;;;;;;5027554;28;20481;-56
2022/01/14 05:22:07;;;;;;;42.65;16.48;;;;;;;;;;5035161;28;20029;-57
2022/01/14 05:24:33;;;;;;;51.03;17.35;;;;;;;;;;5030894;28;20029;-55
2022/01/14 05:26:59;;;;;;;50.63;18.42;;;;;;;;;;5026915;28;20441;-56
2022/01/14 05:29:25;;;;;;;52.55;18.30;;;;;;;;;;5021123;28;20025;-55
2022/01/14 05:32:01;;;;;;;57.90;19.23;;;;;;;;;;5023010;28;20056;-57
2022/01/14 05:34:27;;;;;;;61.83;19.23;;;;;;;;;;5015993;28;20551;-52
2022/01/14 05:36:53;;;;;;;59.45;19.83;;;;;;;;;;5040966;28;20112;-57
2022/01/14 05:39:20;;;;;;;51.97;17.92;;;;;;;;;;5026718;28;20384;-53
2022/01/14 05:41:46;;;;;;;59.45;18.67;;;;;;;;;;5026112;28;20033;-52
2022/01/14 05:44:12;;;;;;;63.15;18.70;;;;;;;;;;5024945;28;20029;-52
2022/01/14 05:46:38;;;;;;;58.22;20.50;;;;;;;;;;5028077;28;20022;-54
2022/01/14 05:49:04;;;;;;;57.75;19.27;;;;;;;;;;5028883;28;20029;-54
2022/01/14 05:51:31;;;;;;;62.40;21.98;;;;;;;;;;5021150;28;20035;-56
2022/01/14 05:53:57;;;;;;;64.45;20.90;;;;;;;;;;5019925;28;20068;-55
2022/01/14 05:56:23;;;;;;;64.45;20.98;;;;;;;;;;5019832;28;20033;-53
2022/01/14 05:58:49;;;;;;;66.88;21.10;;;;;;;;;;5019308;28;20473;-56
2022/01/14 06:01:15;;;;;;;60.17;20.42;;;;;;;;;;5018435;28;20018;-57
2022/01/14 06:03:41;;;;;;;68.78;22.15;;;;;;;;;;5016404;28;20030;-54
2022/01/14 06:06:07;;;;;;;78.60;22.13;;;;;;;;;;5019268;28;20028;-56
2022/01/14 06:08:33;;;;;;;76.20;22.00;;;;;;;;;;5018874;28;20450;-53
2022/01/14 06:10:59;;;;;;;58.70;20.13;;;;;;;;;;5021209;28;20026;-55
2022/01/14 06:13:25;;;;;;;72.07;22.02;;;;;;;;;;5027742;28;20025;-53
2022/01/14 06:15:51;;;;;;;70.63;21.63;;;;;;;;;;5024365;28;20528;-52
2022/01/14 06:18:17;;;;;;;72.00;21.20;;;;;;;;;;5031770;28;20030;-55
2022/01/14 06:20:43;;;;;;;68.00;22.33;;;;;;;;;;5030068;28;20515;-54
2022/01/14 06:23:09;;;;;;;70.72;21.35;;;;;;;;;;5028038;28;20124;-55
2022/01/14 06:25:35;;;;;;;70.15;22.95;;;;;;;;;;5026373;28;20441;-57
2022/01/14 06:28:01;;;;;;;68.68;22.98;;;;;;;;;;5023559;28;20026;-54
2022/01/14 06:30:27;;;;;;;61.67;19.17;;;;;;;;;;5032918;28;20507;-55
2022/01/14 06:32:54;;;;;;;65.65;21.75;;;;;;;;;;5026801;28;20072;-56
2022/01/14 06:35:20;;;;;;;68.57;20.00;;;;;;;;;;5015288;28;20053;-52
2022/01/14 06:37:46;;;;;;;59.58;20.20;;;;;;;;;;5036512;28;20447;-52
2022/01/14 06:40:12;;;;;;;54.17;19.67;;;;;;;;;;5031677;28;20033;-52
2022/01/14 06:42:39;;;;;;;61.55;20.25;;;;;;;;;;5033316;28;20116;-54
2022/01/14 06:45:05;;;;;;;56.83;19.25;;;;;;;;;;5034237;28;20053;-52
2022/01/14 06:47:31;;;;;;;64.40;20.80;;;;;;;;;;5015605;28;20029;-53
2022/01/14 06:49:57;;;;;;;54.50;20.40;;;;;;;;;;5027190;28;20125;-51
2022/01/14 06:52:24;;;;;;;59.85;18.45;;;;;;;;;;5033614;28;20104;-54
2022/01/14 06:54:50;;;;;;;56.45;17.88;;;;;;;;;;5025539;28;20037;-53
2022/01/14 06:57:16;;;;;;;51.58;18.55;;;;;;;;;;5034594;28;20088;-57
2022/01/14 06:59:42;;;;;;;53.38;16.42;;;;;;;;;;5033243;28;20100;-56
2022/01/14 07:02:09;;;;;;;45.35;16.98;;;;;;;;;;5020722;28;20041;-57
2022/01/14 07:04:35;;;;;;;52.25;18.77;;;;;;;;;;5019898;28;20105;-54
2022/01/14 07:07:01;;;;;;;44.33;16.48;;;;;;;;;;5020900;28;20029;-56
2022/01/14 07:09:30;;;;;;;50.28;16.45;;;;;;;;;;5022669;28;20036;-55
2022/01/14 07:11:58;;;;;;;44.58;16.35;;;;;;;;;;5027822;28;20029;-56
2022/01/14 07:14:24;;;;;;;51.30;17.60;;;;;;;;;;5023866;28;20030;-54
2022/01/14 07:16:50;;;;;;;47.65;15.75;;;;;;;;;;5022790;28;20673;-55
2022/01/14 07:19:19;;;;;;;43.45;15.40;;;;;;;;;;5026972;28;20028;-53
2022/01/14 07:21:45;;;;;;;46.20;15.73;;;;;;;;;;5041733;28;20105;-55
2022/01/14 07:24:13;;;;;;;46.28;16.35;;;;;;;;;;5031063;28;20113;-57
2022/01/14 07:26:39;;;;;;;42.47;16.02;;;;;;;;;;5033519;28;20034;-55
2022/01/14 07:29:05;;;;;;;36.45;14.82;;;;;;;;;;5032609;28;20052;-56
2022/01/14 07:31:31;;;;;;;44.78;14.90;;;;;;;;;;5028374;28;20037;-54
2022/01/14 07:33:57;;;;;;;44.17;15.15;;;;;;;;;;5023274;28;20108;-56
2022/01/14 07:36:23;;;;;;;43.33;15.18;;;;;;;;;;5032597;28;20037;-56
2022/01/14 07:38:50;;;;;;;42.10;15.57;;;;;;;;;;5030685;28;20025;-54
2022/01/14 07:41:16;;;;;;;44.00;15.13;;;;;;;;;;5030597;28;20429;-56
2022/01/14 07:43:46;;;;;;;47.88;14.68;;;;;;;;;;5023440;28;20109;-51
2022/01/14 07:46:12;;;;;;;40.53;13.85;;;;;;;;;;5030612;28;20709;-56
2022/01/14 07:48:38;;;;;;;39.50;13.75;;;;;;;;;;5031783;28;20369;-52
2022/01/14 07:51:04;;;;;;;34.08;14.57;;;;;;;;;;5026036;28;20029;-56
2022/01/14 07:53:30;;;;;;;40.50;14.50;;;;;;;;;;5024348;28;20449;-57
2022/01/14 07:55:56;;;;;;;47.45;14.27;;;;;;;;;;5033276;28;20365;-51
2022/01/14 07:58:23;;;;;;;37.05;13.38;;;;;;;;;;5025475;28;20033;-51
2022/01/14 08:00:49;;;;;;;35.33;13.90;;;;;;;;;;5024369;28;20030;-55
2022/01/14 08:03:15;;;;;;;34.53;12.73;;;;;;;;;;5040233;28;20426;-57
2022/01/14 08:05:42;;;;;;;41.40;14.50;;;;;;;;;;5035833;28;20064;-55
2022/01/14 08:08:08;;;;;;;37.72;12.88;;;;;;;;;;5025554;28;20053;-51
2022/01/14 08:10:35;;;;;;;36.85;13.93;;;;;;;;;;5023163;28;20114;-57
2022/01/14 08:13:01;;;;;;;34.25;15.05;;;;;;;;;;5041056;28;20025;-56
2022/01/14 08:15:27;;;;;;;37.05;14.07;;;;;;;;;;5033144;28;20033;-55
2022/01/14 08:17:54;;;;;;;45.28;14.48;;;;;;;;;;5027800;28;20073;-55
2022/01/14 08:20:20;;;;;;;35.45;13.25;;;;;;;;;;5018675;28;20150;-55
2022/01/14 08:22:46;;;;;;;49.05;14.07;;;;;;;;;;5032292;28;20465;-57
2022/01/14 08:25:12;;;;;;;39.20;13.93;;;;;;;;;;5032601;28;20030;-55
2022/01/14 08:27:38;;;;;;;34.58;14.18;;;;;;;;;;5020387;28;20399;-54
2022/01/14 08:30:05;;;;;;;43.15;15.50;;;;;;;;;;5024470;28;20156;-52
2022/01/14 08:32:31;;;;;;;46.80;14.75;;;;;;;;;;5027462;28;20052;-57
2022/01/14 08:34:57;;;;;;;44.25;14.45;;;;;;;;;;5022124;28;20113;-51
2022/01/14 08:37:23;;;;;;;39.83;15.30;;;;;;;;;;5029683;28;20029;-57
2022/01/14 08:39:49;;;;;;;37.00;15.38;;;;;;;;;;5032099;28;20040;-56
2022/01/14 08:42:15;;;;;;;43.17;15.00;;;;;;;;;;5032925;28;20100;-51
2022/01/14 08:44:42;;;;;;;45.58;15.65;;;;;;;;;;5022537;28;20041;-54
2022/01/14 08:47:09;;;;;;;43.92;14.45;;;;;;;;;;5023630;28;20036;-55
2022/01/14 08:49:39;;;;;;;41.95;16.23;;;;;;;;;;5029280;28;20152;-52
2022/01/14 08:52:06;;;;;;;41.80;15.82;;;;;;;;;;5032938;28;20026;-55
2022/01/14 08:54:32;;;;;;;44.90;14.77;;;;;;;;;;5031146;28;20041;-56
2022/01/14 08:56:58;;;;;;;36.80;14.13;;;;;;;;;;5027835;28;20144;-54
2022/01/14 08:59:24;;;;;;;34.78;14.05;;;;;;;;;;5028537;28;20056;-54
2022/01/14 09:01:50;;;;;;;39.35;15.75;;;;;;;;;;5028316;28;20141;-56
2022/01/14 09:04:16;;;;;;;43.35;14.48;;;;;;;;;;5029882;28;20109;-56
2022/01/14 09:06:42;;;;;;;44.72;15.55;;;;;;;;;;5032419;28;20032;-53
2022/01/14 09:09:09;;;;;;;40.85;14.32;;;;;;;;;;5024275;28;20108;-51
2022/01/14 09:11:35;;;;;;;49.17;15.48;;;;;;;;;;5028265;28;20480;-55
2022/01/14 09:14:01;;;;;;;38.10;14.18;;;;;;;;;;5027452;28;20043;-55
2022/01/14 09:16:27;;;;;;;40.25;14.82;;;;;;;;;;5034978;28;20436;-52
2022/01/14 09:18:53;;;;;;;38.47;14.68;;;;;;;;;;5031507;28;20034;-52
2022/01/14 09:21:19;;;;;;;35.45;13.68;;;;;;;;;;5040024;28;20060;-54
2022/01/14 09:23:53;;;;;;;43.03;13.50;;;;;;;;;;5031964;28;20048;-56
2022/01/14 09:26:19;;;;;;;33.50;12.35;;;;;;;;;;5032212;28;20519;-56
2022/01/14 09:28:45;;;;;;;31.63;12.10;;;;;;;;;;5030946;28;20048;-53
2022/01/14 09:31:11;;;;;;;32.97;13.13;;;;;;;;;;5031552;28;20044;-52
2022/01/14 09:33:38;;;;;;;36.03;12.20;;;;;;;;;;5023720;28;20030;-55
2022/01/14 09:36:04;;;;;;;27.45;12.15;;;;;;;;;;5019255;28;20044;-56
2022/01/14 09:38:31;;;;;;;37.65;12.43;;;;;;;;;;5025289;28;20033;-54
2022/01/14 09:40:57;;;;;;;31.00;11.80;;;;;;;;;;5028254;28;20033;-52
2022/01/14 09:43:23;;;;;;;34.95;12.13;;;;;;;;;;5021396;28;20030;-54
2022/01/14 09:45:51;;;;;;;25.90;12.18;;;;;;;;;;5025731;28;20083;-53
2022/01/14 09:48:17;;;;;;;25.67;11.23;;;;;;;;;;5023583;28;20906;-50
2022/01/14 09:50:44;;;;;;;27.00;11.23;;;;;;;;;;5019111;28;20699;-52
2022/01/14 09:53:16;;;;;;;26.67;11.48;;;;;;;;;;5018138;28;20068;-55
2022/01/14 09:55:43;;;;;;;28.83;10.47;;;;;;;;;;5018730;28;20036;-51
2022/01/14 09:58:09;;;;;;;26.73;10.38;;;;;;;;;;5017756;28;20029;-51
2022/01/14 10:00:36;;;;;;;21.02;9.27;;;;;;;;;;5029203;28;20062;-51
2022/01/14 10:03:17;;;;;;;23.20;9.90;;;;;;;;;;5026731;28;20040;-57
2022/01/14 10:05:44;;;;;;;30.48;9.40;;;;;;;;;;5031290;28;20104;-56
2022/01/14 10:08:18;;;;;;;30.00;9.43;;;;;;;;;;5038333;28;20041;-54
2022/01/14 10:10:46;;;;;;;23.75;8.70;;;;;;;;;;5026550;28;20103;-51
2022/01/14 10:13:13;;;;;;;23.90;9.30;;;;;;;;;;5033695;28;20034;-55
2022/01/14 10:15:43;;;;;;;20.08;9.13;;;;;;;;;;5031810;28;20060;-54
2022/01/14 10:18:09;;;;;;;29.52;9.23;;;;;;;;;;5030642;28;20497;-55
2022/01/14 10:20:38;;;;;;;29.00;9.95;;;;;;;;;;5035433;28;20078;-56
2022/01/14 10:23:04;;;;;;;27.50;9.63;;;;;;;;;;5033212;28;20477;-54
2022/01/14 10:25:30;;;;;;;28.00;10.00;;;;;;;;;;5021002;28;20025;-54
2022/01/14 10:27:56;;;;;;;22.25;9.55;;;;;;;;;;5031472;28;20025;-54
2022/01/14 10:30:24;;;;;;;19.88;8.15;;;;;;;;;;5024058;28;20160;-56
2022/01/14 10:32:55;;;;;;;20.10;9.13;;;;;;;;;;5029360;28;20053;-55
2022/01/14 10:35:22;;;;;;;20.20;8.98;;;;;;;;;;5031426;28;20437;-53
2022/01/14 10:37:48;;;;;;;18.85;8.45;;;;;;;;;;5031363;28;20117;-56
2022/01/14 10:40:17;;;;;;;22.05;9.27;;;;;;;;;;5031692;28;20039;-54
2022/01/14 10:42:45;;;;;;;28.77;8.77;;;;;;;;;;5030951;28;20033;-51
2022/01/14 10:45:14;;;;;;;22.77;9.30;;;;;;;;;;5031617;28;20097;-56
2022/01/14 10:47:41;;;;;;;23.55;8.02;;;;;;;;;;5022612;28;20037;-57
2022/01/14 10:50:07;;;;;;;25.08;8.98;;;;;;;;;;5020411;28;20373;-57
2022/01/14 10:52:33;;;;;;;18.80;7.88;;;;;;;;;;5027818;28;20029;-57
2022/01/14 10:54:59;;;;;;;20.70;8.77;;;;;;;;;;5031511;28;20036;-55
2022/01/14 10:57:26;;;;;;;19.50;7.72;;;;;;;;;;5021452;28;20025;-55
2022/01/14 10:59:54;;;;;;;16.38;7.90;;;;;;;;;;5018612;28;20026;-55
2022/01/14 11:02:37;;;;;;;21.52;9.20;;;;;;;;;;5026716;28;20401;-52
2022/01/14 11:05:14;;;;;;;20.52;8.30;;;;;;;;;;5018825;28;20390;-57
2022/01/14 11:07:41;;;;;;;21.08;7.80;;;;;;;;;;5026302;28;20117;-55
2022/01/14 11:10:15;;;;;;;27.48;8.57;;;;;;;;;;5024067;28;20100;-51
2022/01/14 11:12:41;;;;;;;22.58;8.45;;;;;;;;;;5033914;28;20043;-51
2022/01/14 11:15:08;;;;;;;22.05;7.88;;;;;;;;;;5021598;28;20064;-55
2022/01/14 11:17:38;;;;;;;13.75;7.13;;;;;;;;;;5038935;28;21543;-53
2022/01/14 11:20:06;;;;;;;18.27;8.25;;;;;;;;;;5029630;28;20029;-54
2022/01/14 11:25:17;;;;;;;17.60;7.18;;;;;;;;;;5032136;28;20060;-54
2022/01/14 11:27:47;;;;;;;18.27;7.75;;;;;;;;;;5026997;28;20376;-53
2022/01/14 11:30:13;;;;;;;16.83;7.65;;;;;;;;;;5034437;28;20033;-51
2022/01/14 11:32:52;;;;;;;16.33;6.90;;;;;;;;;;5029865;28;20029;-51
2022/01/14 11:35:22;;;;;;;16.92;7.15;;;;;;;;;;5033949;28;20129;-53
2022/01/14 11:37:48;;;;;;;22.10;7.22;;;;;;;;;;5020055;28;20029;-57
2022/01/14 11:40:15;;;;;;;14.70;6.88;;;;;;;;;;5024718;28;20037;-56
2022/01/14 11:43:02;;;;;;;12.80;6.75;;;;;;;;;;5033239;28;20780;-55
2022/01/14 11:45:40;;;;;;;18.13;7.28;;;;;;;;;;5032757;28;20021;-51
2022/01/14 11:48:07;;;;;;;18.42;6.30;;;;;;;;;;5030698;28;20057;-53
2022/01/14 11:50:33;;;;;;;19.40;6.75;;;;;;;;;;5034259;28;20480;-56
2022/01/14 11:52:59;;;;;;;27.70;7.75;;;;;;;;;;5033724;28;20021;-55
2022/01/14 11:55:31;;;;;;;14.98;6.68;;;;;;;;;;5034269;28;20060;-57
2022/01/14 11:57:58;;;;;;;18.55;5.88;;;;;;;;;;5033794;28;20033;-55
2022/01/14 12:00:27;;;;;;;13.68;5.90;;;;;;;;;;5033742;28;20155;-54
2022/01/14 12:02:53;;;;;;;15.98;6.35;;;;;;;;;;5028205;28;20032;-53
2022/01/14 12:05:21;;;;;;;22.67;7.82;;;;;;;;;;5028861;28;20025;-54
2022/01/14 12:08:02;;;;;;;17.00;6.88;;;;;;;;;;5032436;28;20377;-51
2022/01/14 12:10:32;;;;;;;23.17;6.70;;;;;;;;;;5031810;28;20034;-57
2022/01/14 12:13:16;;;;;;;15.70;6.35;;;;;;;;;;5023382;28;20366;-54
2022/01/14 12:15:57;;;;;;;17.50;6.90;;;;;;;;;;5035756;28;20030;-57
2022/01/14 12:18:42;;;;;;;18.02;6.95;;;;;;;;;;5030447;28;20120;-55
2022/01/14 12:21:08;;;;;;;21.88;7.65;;;;;;;;;;5031252;28;20045;-56
2022/01/14 12:23:34;;;;;;;20.13;7.18;;;;;;;;;;5020840;28;20109;-53
2022/01/14 12:26:16;;;;;;;19.08;7.97;;;;;;;;;;5026737;28;20048;-51
2022/01/14 12:28:43;;;;;;;16.55;6.50;;;;;;;;;;5021522;28;20685;-55
2022/01/14 12:31:09;;;;;;;17.38;6.65;;;;;;;;;;5043167;28;20105;-51
2022/01/14 12:33:37;;;;;;;20.48;7.22;;;;;;;;;;5021820;28;20029;-56
2022/01/14 12:36:14;;;;;;;19.40;6.63;;;;;;;;;;5022658;28;20116;-57
2022/01/14 12:38:40;;;;;;;19.08;7.15;;;;;;;;;;5021935;28;20087;-51
2022/01/14 12:41:20;;;;;;;16.27;6.82;;;;;;;;;;5033157;28;20494;-56
2022/01/14 12:43:52;;;;;;;16.00;6.20;;;;;;;;;;5032036;28;20516;-55
2022/01/14 12:46:35;;;;;;;16.92;7.10;;;;;;;;;;5027996;28;20060;-55
2022/01/14 12:49:05;;;;;;;20.45;7.55;;;;;;;;;;5029988;28;20500;-55
2022/01/14 12:51:32;;;;;;;20.02;6.55;;;;;;;;;;5019208;28;20516;-55
2022/01/14 12:53:58;;;;;;;18.08;7.40;;;;;;;;;;5028402;28;20037;-55
2022/01/14 12:56:28;;;;;;;17.60;7.55;;;;;;;;;;5018635;28;20029;-55
2022/01/14 12:58:56;;;;;;;19.20;7.25;;;;;;;;;;5023438;28;20057;-50
2022/01/14 13:01:30;;;;;;;18.00;7.32;;;;;;;;;;5016449;28;20049;-52
2022/01/14 13:03:58;;;;;;;16.50;6.75;;;;;;;;;;5025847;28;20536;-51
2022/01/14 13:06:24;;;;;;;22.65;8.45;;;;;;;;;;5021509;28;20401;-57
2022/01/14 13:08:55;;;;;;;18.83;7.70;;;;;;;;;;5021878;28;20029;-57
2022/01/14 13:11:21;;;;;;;17.67;7.03;;;;;;;;;;5025630;28;20473;-53
2022/01/14 13:13:57;;;;;;;18.50;7.55;;;;;;;;;;5017218;28;20046;-52
2022/01/14 13:16:23;;;;;;;16.13;7.35;;;;;;;;;;5027395;28;20412;-54
2022/01/14 13:18:49;;;;;;;18.85;6.70;;;;;;;;;;5017780;28;20037;-54
2022/01/14 13:21:15;;;;;;;18.25;6.82;;;;;;;;;;5028246;28;20033;-56
2022/01/14 13:23:45;;;;;;;15.75;5.78;;;;;;;;;;5019992;28;20087;-53
2022/01/14 13:26:11;;;;;;;16.08;6.40;;;;;;;;;;5026797;28;20025;-55
2022/01/14 13:28:37;;;;;;;18.27;8.00;;;;;;;;;;5022898;28;20080;-55
2022/01/14 13:31:08;;;;;;;24.35;7.00;;;;;;;;;;5016852;28;20061;-57
2022/01/14 13:33:34;;;;;;;16.65;6.70;;;;;;;;;;5022447;28;20026;-56
2022/01/14 13:36:00;;;;;;;14.60;5.82;;;;;;;;;;5021998;28;20053;-55
2022/01/14 13:38:26;;;;;;;17.75;6.28;;;;;;;;;;5021334;28;20049;-53
2022/01/14 13:40:54;;;;;;;17.08;5.93;;;;;;;;;;5031608;28;20076;-55
2022/01/14 13:43:22;;;;;;;18.02;6.20;;;;;;;;;;5027355;28;20084;-53
2022/01/14 13:45:49;;;;;;;17.52;6.68;;;;;;;;;;5020351;28;20033;-56
2022/01/14 13:48:23;;;;;;;11.57;5.80;;;;;;;;;;5022682;28;20030;-54
2022/01/14 13:50:51;;;;;;;12.60;5.80;;;;;;;;;;5021502;28;20022;-57
2022/01/14 13:53:19;;;;;;;15.55;5.60;;;;;;;;;;5029505;28;20029;-57
2022/01/14 13:55:48;;;;;;;10.05;5.50;;;;;;;;;;5027047;28;20029;-57
2022/01/14 13:58:18;;;;;;;11.38;5.72;;;;;;;;;;5030172;28;20040;-54
2022/01/14 14:00:44;;;;;;;16.73;6.35;;;;;;;;;;5024155;28;20057;-54
2022/01/14 14:03:16;;;;;;;10.25;5.32;;;;;;;;;;5022419;28;20045;-52
2022/01/14 14:05:46;;;;;;;12.35;5.28;;;;;;;;;;5021191;28;20044;-52
2022/01/14 14:08:19;;;;;;;11.30;5.18;;;;;;;;;;5025817;28;20021;-54
2022/01/14 14:16:32;;;;;;;13.60;5.07;;;;;;;;;;5028773;28;20389;-53
2022/01/14 14:18:59;;;;;;;9.98;5.00;;;;;;;;;;5023060;28;20576;-56
2022/01/14 14:21:29;;;;;;;14.57;5.53;;;;;;;;;;5035186;28;20037;-57
2022/01/14 14:23:55;;;;;;;14.43;6.10;;;;;;;;;;5026211;28;20038;-57
2022/01/14 14:26:32;;;;;;;11.45;5.07;;;;;;;;;;5025325;28;20032;-56
2022/01/14 14:29:02;;;;;;;12.07;6.07;;;;;;;;;;5021383;28;20167;-55
2022/01/14 14:31:32;;;;;;;9.43;4.88;;;;;;;;;;5022384;28;20501;-55
2022/01/14 14:33:58;;;;;;;11.82;4.75;;;;;;;;;;5015919;28;20490;-56
2022/01/14 14:36:27;;;;;;;11.60;5.65;;;;;;;;;;5023623;28;20497;-56
2022/01/14 14:38:54;;;;;;;11.40;5.22;;;;;;;;;;5032524;28;20037;-56
2022/01/14 14:41:20;;;;;;;20.52;5.68;;;;;;;;;;5030433;28;20382;-53
2022/01/14 14:43:45;;;;;;;10.32;5.03;;;;;;;;;;5035585;28;20032;-53
2022/01/14 14:46:11;;;;;;;10.35;5.07;;;;;;;;;;5029295;28;20026;-57
2022/01/14 14:48:38;;;;;;;12.90;5.18;;;;;;;;;;5022395;28;20037;-54
2022/01/14 14:51:04;;;;;;;12.52;5.97;;;;;;;;;;5031174;28;20029;-57
2022/01/14 14:53:30;;;;;;;13.30;5.40;;;;;;;;;;5034130;28;20025;-56